Time;durP1;ratioP1;P1;durP2;ratioP2;P2;SDS_P1;SDS_P2;PMS_P1;PMS_P2;Temp;Humidity;BMP_temperature;BMP_pressure;BME280_temperature;BME280_humidity;BME280_pressure;Samples;Min_cycle;Max_cycle;Signal;HPM_P1;HPM_P2
2022/04/12 00:01:34;;;;;;;4.23;3.67;;;5.10;99.90;;;;;;5063575;28;20210;-60
2022/04/12 00:04:01;;;;;;;10.40;5.57;;;5.10;99.90;;;;;;5051943;28;20194;-60
2022/04/12 00:06:27;;;;;;;8.07;4.70;;;5.30;99.90;;;;;;5050244;28;20324;-60
2022/04/12 00:08:52;;;;;;;7.80;4.40;;;5.60;99.90;;;;;;5046393;28;20278;-60
2022/04/12 00:11:18;;;;;;;5.90;4.23;;;5.60;99.90;;;;;;5061502;28;20213;-60
2022/04/12 00:13:43;;;;;;;6.73;4.10;;;5.60;99.90;;;;;;5053796;28;20198;-60
2022/04/12 00:16:09;;;;;;;8.17;4.17;;;5.50;99.90;;;;;;5047462;28;20264;-60
2022/04/12 00:21:19;;;;;;;8.33;4.10;;;5.70;99.90;;;;;;5067905;28;20224;-60
2022/04/12 00:23:44;;;;;;;6.30;4.20;;;5.70;99.90;;;;;;5069566;28;20178;-60
2022/04/12 00:26:10;;;;;;;6.03;4.57;;;5.70;99.90;;;;;;5067524;28;20198;-59
2022/04/12 00:28:35;;;;;;;5.87;3.70;;;5.70;99.90;;;;;;5062486;28;20272;-59
2022/04/12 00:31:02;;;;;;;6.33;4.33;;;5.70;99.90;;;;;;5067164;28;20579;-60
2022/04/12 00:33:29;;;;;;;5.00;3.43;;;5.60;99.90;;;;;;5055285;28;20747;-58
2022/04/12 00:35:56;;;;;;;9.03;3.90;;;5.50;99.90;;;;;;5048864;28;20276;-60
2022/04/12 00:38:25;;;;;;;5.07;3.53;;;5.40;99.90;;;;;;5060466;28;20198;-59
2022/04/12 00:40:50;;;;;;;4.23;3.80;;;5.30;99.90;;;;;;5054057;28;20265;-59
2022/04/12 00:43:18;;;;;;;6.27;3.37;;;5.30;99.90;;;;;;5052407;28;20221;-60
2022/04/12 00:45:43;;;;;;;3.97;2.80;;;5.10;99.90;;;;;;5050616;28;20203;-60
2022/04/12 00:48:10;;;;;;;5.43;3.53;;;5.10;99.90;;;;;;5068354;28;20198;-59
2022/04/12 00:50:37;;;;;;;5.03;3.03;;;5.10;99.90;;;;;;5067091;28;20379;-59
2022/04/12 00:53:03;;;;;;;4.00;3.00;;;5.10;99.90;;;;;;5068704;28;20249;-59
2022/04/12 00:55:30;;;;;;;5.27;3.13;;;5.10;99.90;;;;;;5066941;28;20206;-59
2022/04/12 00:57:56;;;;;;;4.23;2.63;;;5.10;99.90;;;;;;5062431;28;20198;-59
2022/04/12 01:00:22;;;;;;;5.33;3.43;;;5.10;99.90;;;;;;5054611;28;20723;-60
2022/04/12 01:02:47;;;;;;;4.17;2.43;;;5.10;99.90;;;;;;5064238;28;20840;-62
2022/04/12 01:05:13;;;;;;;8.27;3.63;;;5.10;99.90;;;;;;5052856;28;20194;-61
2022/04/12 01:07:39;;;;;;;3.03;2.57;;;5.10;99.90;;;;;;5053668;28;20233;-61
2022/04/12 01:10:05;;;;;;;2.50;2.30;;;5.10;99.90;;;;;;5057483;28;20194;-61
2022/04/12 01:12:38;;;;;;;6.73;3.23;;;5.20;99.90;;;;;;5059013;28;20186;-61
2022/04/12 01:15:30;;;;;;;6.00;3.67;;;5.10;99.90;;;;;;5060951;28;20718;-61
2022/04/12 01:17:57;;;;;;;4.27;2.40;;;5.30;99.90;;;;;;5059920;28;20292;-61
2022/04/12 01:20:24;;;;;;;5.23;3.00;;;5.30;99.90;;;;;;5051926;28;20781;-61
2022/04/12 01:22:52;;;;;;;5.57;3.23;;;5.40;99.90;;;;;;5058757;28;20205;-60
2022/04/12 01:25:19;;;;;;;3.43;2.67;;;5.30;99.90;;;;;;5047747;28;20205;-60
2022/04/12 01:27:45;;;;;;;3.83;3.13;;;5.30;99.90;;;;;;5068343;28;20645;-60
2022/04/12 01:30:11;;;;;;;12.17;3.63;;;5.30;99.90;;;;;;5057412;28;20209;-60
2022/04/12 01:32:37;;;;;;;3.50;2.33;;;5.20;99.90;;;;;;5055269;28;20247;-61
2022/04/12 01:35:02;;;;;;;3.03;2.73;;;5.20;99.90;;;;;;5048485;28;20190;-61
2022/04/12 01:37:28;;;;;;;9.40;3.40;;;5.20;99.90;;;;;;5068438;28;20879;-60
2022/04/12 01:39:53;;;;;;;2.80;2.60;;;5.10;99.90;;;;;;5058086;28;20198;-61
2022/04/12 01:42:19;;;;;;;4.63;3.10;;;5.10;99.90;;;;;;5056793;28;20210;-61
2022/04/12 01:44:44;;;;;;;5.63;2.80;;;5.10;99.90;;;;;;5059488;28;20191;-61
2022/04/12 01:47:10;;;;;;;9.43;3.23;;;5.00;99.90;;;;;;5065860;28;20194;-60
2022/04/12 01:49:35;;;;;;;5.03;2.93;;;5.00;99.90;;;;;;5055080;28;20225;-62
2022/04/12 01:52:02;;;;;;;4.57;3.00;;;4.90;99.90;;;;;;5057135;28;20222;-61
2022/04/12 01:54:28;;;;;;;4.97;3.10;;;4.90;99.90;;;;;;5066147;28;20332;-61
2022/04/12 01:56:56;;;;;;;5.87;3.27;;;4.90;99.90;;;;;;5056134;28;20313;-61
2022/04/12 01:59:22;;;;;;;3.17;2.87;;;4.90;99.90;;;;;;5060970;28;20245;-61
2022/04/12 02:01:48;;;;;;;4.07;3.17;;;4.80;99.90;;;;;;5062863;28;20933;-60
2022/04/12 02:04:13;;;;;;;3.93;2.70;;;5.00;99.90;;;;;;5059619;28;20324;-61
2022/04/12 02:06:38;;;;;;;4.27;2.77;;;4.90;99.90;;;;;;5054109;28;20206;-62
2022/04/12 02:09:04;;;;;;;6.63;3.10;;;4.90;99.90;;;;;;5062208;28;20190;-60
2022/04/12 02:11:30;;;;;;;4.40;3.03;;;4.80;99.90;;;;;;5065677;28;20208;-60
2022/04/12 02:13:55;;;;;;;4.97;2.87;;;4.80;99.90;;;;;;5058800;28;20554;-60
2022/04/12 02:16:23;;;;;;;4.17;2.90;;;4.80;99.90;;;;;;5058235;28;20565;-61
2022/04/12 02:18:48;;;;;;;6.67;3.33;;;4.80;99.90;;;;;;5055052;28;20278;-63
2022/04/12 02:21:14;;;;;;;6.37;3.27;;;4.90;99.90;;;;;;5052770;28;20386;-62
2022/04/12 02:23:40;;;;;;;8.93;4.20;;;5.10;99.90;;;;;;5067593;28;20186;-61
2022/04/12 02:26:06;;;;;;;5.90;2.70;;;5.10;99.90;;;;;;5051090;28;20207;-60
2022/04/12 02:28:31;;;;;;;3.10;2.80;;;5.10;99.90;;;;;;5047078;28;20580;-60
2022/04/12 02:30:56;;;;;;;6.33;3.47;;;5.10;99.90;;;;;;5047181;28;20195;-61
2022/04/12 02:33:22;;;;;;;7.63;3.60;;;5.10;99.90;;;;;;5058630;28;20210;-61
2022/04/12 02:35:47;;;;;;;4.20;3.57;;;5.00;99.90;;;;;;5058149;28;20225;-61
2022/04/12 02:38:13;;;;;;;4.60;3.00;;;5.00;99.90;;;;;;5057866;28;20182;-61
2022/04/12 02:40:38;;;;;;;4.97;3.10;;;5.00;99.90;;;;;;5054584;28;20190;-59
2022/04/12 02:43:04;;;;;;;5.53;3.33;;;4.90;99.90;;;;;;5052721;28;20787;-60
2022/04/12 02:45:29;;;;;;;7.63;3.50;;;4.90;99.90;;;;;;5060858;28;20198;-60
2022/04/12 02:47:55;;;;;;;4.10;3.47;;;4.90;99.90;;;;;;5058263;28;20186;-59
2022/04/12 02:50:23;;;;;;;4.77;3.50;;;4.90;99.90;;;;;;5053771;28;20245;-60
2022/04/12 02:52:49;;;;;;;4.07;3.17;;;5.00;99.90;;;;;;5058951;28;20247;-60
2022/04/12 02:55:14;;;;;;;4.30;3.60;;;5.00;99.90;;;;;;5055147;28;20186;-60
2022/04/12 02:57:40;;;;;;;5.73;2.73;;;4.90;99.90;;;;;;5064459;28;20355;-60
2022/04/12 03:00:06;;;;;;;6.27;4.47;;;4.80;99.90;;;;;;5057039;28;20193;-60
2022/04/12 03:02:32;;;;;;;4.33;3.93;;;4.80;99.90;;;;;;5054404;28;20431;-59
2022/04/12 03:04:57;;;;;;;7.47;3.87;;;4.80;99.90;;;;;;5060151;28;20314;-60
2022/04/12 03:07:23;;;;;;;5.50;3.30;;;4.80;99.90;;;;;;5053490;28;20233;-60
2022/04/12 03:09:49;;;;;;;6.03;4.10;;;4.70;99.90;;;;;;5066101;28;20240;-60
2022/04/12 03:12:15;;;;;;;5.43;3.87;;;4.70;99.90;;;;;;5057836;28;20857;-60
2022/04/12 03:14:40;;;;;;;4.73;3.20;;;4.60;99.90;;;;;;5063040;28;20197;-60
2022/04/12 03:17:06;;;;;;;5.73;3.63;;;4.60;99.90;;;;;;5052626;28;20217;-60
2022/04/12 03:19:31;;;;;;;4.37;3.47;;;4.60;99.90;;;;;;5066071;28;20734;-60
2022/04/12 03:21:57;;;;;;;5.83;3.87;;;4.70;99.90;;;;;;5050312;28;20207;-60
2022/04/12 03:24:22;;;;;;;6.57;3.70;;;4.60;99.90;;;;;;5050678;28;20648;-59
2022/04/12 03:26:49;;;;;;;3.70;3.07;;;4.50;99.90;;;;;;5044795;28;20305;-60
2022/04/12 03:29:15;;;;;;;3.97;3.03;;;4.50;99.90;;;;;;5057625;28;20253;-60
2022/04/12 03:31:41;;;;;;;4.30;3.47;;;4.50;99.90;;;;;;5055350;28;20210;-61
2022/04/12 03:34:06;;;;;;;6.47;3.87;;;4.40;99.90;;;;;;5058494;28;20556;-61
2022/04/12 03:36:31;;;;;;;7.60;3.77;;;4.50;99.90;;;;;;5054861;28;20209;-60
2022/04/12 03:38:57;;;;;;;5.03;3.70;;;4.50;99.90;;;;;;5066135;28;20229;-60
2022/04/12 03:41:23;;;;;;;5.37;3.40;;;4.60;99.90;;;;;;5060360;28;20214;-59
2022/04/12 03:43:52;;;;;;;4.43;4.03;;;4.60;99.90;;;;;;5061624;28;20626;-60
2022/04/12 03:46:18;;;;;;;6.67;4.00;;;4.60;99.90;;;;;;5055641;28;20194;-60
2022/04/12 03:48:44;;;;;;;3.67;3.37;;;4.70;99.90;;;;;;5045817;28;20334;-59
2022/04/12 03:51:10;;;;;;;7.20;3.60;;;4.70;99.90;;;;;;5050911;28;20197;-60
2022/04/12 03:53:37;;;;;;;4.43;4.03;;;4.60;99.90;;;;;;5063810;28;20197;-61
2022/04/12 03:56:07;;;;;;;4.83;3.60;;;4.70;99.90;;;;;;5052311;28;20210;-60
2022/04/12 03:58:34;;;;;;;5.50;4.10;;;4.70;99.90;;;;;;5047384;28;20193;-60
2022/04/12 04:00:59;;;;;;;5.30;3.73;;;4.60;99.90;;;;;;5050198;28;20194;-61
2022/04/12 04:03:25;;;;;;;5.73;4.00;;;4.50;99.90;;;;;;5056960;28;20191;-61
2022/04/12 04:05:50;;;;;;;9.10;5.13;;;4.50;99.90;;;;;;5049289;28;20189;-59
2022/04/12 04:08:16;;;;;;;6.50;4.43;;;4.50;99.90;;;;;;5054289;28;20604;-65
2022/04/12 04:10:42;;;;;;;7.03;4.60;;;4.50;99.90;;;;;;5054581;28;20410;-68
2022/04/12 04:13:08;;;;;;;10.20;4.93;;;4.60;99.90;;;;;;5066267;28;20664;-68
2022/04/12 04:15:40;;;;;;;7.23;4.73;;;4.60;99.90;;;;;;5060046;28;20186;-63
2022/04/12 04:18:09;;;;;;;8.53;4.73;;;4.70;99.90;;;;;;5060101;28;20713;-63
2022/04/12 04:20:35;;;;;;;6.80;4.23;;;4.80;99.90;;;;;;5060090;28;20261;-66
2022/04/12 04:23:01;;;;;;;4.90;4.40;;;4.90;99.90;;;;;;5048572;28;20221;-61
2022/04/12 04:25:26;;;;;;;5.47;4.13;;;4.90;99.90;;;;;;5055831;28;20884;-64
2022/04/12 04:27:52;;;;;;;6.53;3.77;;;4.90;99.90;;;;;;5057116;28;20179;-63
2022/04/12 04:30:19;;;;;;;4.10;3.70;;;4.90;99.90;;;;;;5054192;28;20199;-61
2022/04/12 04:32:45;;;;;;;7.07;4.20;;;5.00;99.90;;;;;;5065580;28;20293;-61
2022/04/12 04:35:12;;;;;;;6.00;4.67;;;4.90;99.90;;;;;;5054116;28;20199;-61
2022/04/12 04:37:48;;;;;;;5.43;4.40;;;4.90;99.90;;;;;;5058576;28;20206;-61
2022/04/12 04:40:16;;;;;;;7.50;4.50;;;4.80;99.90;;;;;;5047884;28;20282;-62
2022/04/12 04:42:42;;;;;;;7.13;4.63;;;4.80;99.90;;;;;;5059676;28;20218;-62
2022/04/12 04:45:09;;;;;;;8.00;4.67;;;4.80;99.90;;;;;;5051946;28;20206;-62
2022/04/12 04:47:34;;;;;;;6.73;4.47;;;4.80;99.90;;;;;;5048186;28;20560;-63
2022/04/12 04:50:01;;;;;;;5.47;4.70;;;4.80;99.90;;;;;;5059187;28;20186;-62
2022/04/12 04:52:26;;;;;;;6.13;5.30;;;4.80;99.90;;;;;;5046897;28;20242;-62
2022/04/12 04:54:52;;;;;;;7.70;4.30;;;4.80;99.90;;;;;;5048258;28;20255;-62
2022/04/12 04:57:17;;;;;;;8.30;4.87;;;4.80;99.90;;;;;;5060772;28;20293;-61
2022/04/12 04:59:43;;;;;;;5.47;4.37;;;4.80;99.90;;;;;;5045577;28;20206;-63
2022/04/12 05:02:08;;;;;;;8.83;5.73;;;4.90;99.90;;;;;;5065189;28;20226;-61
2022/04/12 05:04:34;;;;;;;9.77;4.70;;;4.90;99.90;;;;;;5065599;28;20288;-62
2022/04/12 05:06:59;;;;;;;8.30;4.83;;;4.80;99.90;;;;;;5057483;28;20202;-61
2022/04/12 05:09:25;;;;;;;10.03;4.83;;;4.80;99.90;;;;;;5068394;28;20194;-62
2022/04/12 05:11:50;;;;;;;9.27;5.60;;;4.90;99.90;;;;;;5066604;28;20209;-61
2022/04/12 05:14:19;;;;;;;5.17;4.63;;;5.00;99.90;;;;;;5064282;28;20199;-61
2022/04/12 05:16:44;;;;;;;10.40;5.30;;;5.00;99.90;;;;;;5062584;28;20248;-62
2022/04/12 05:19:10;;;;;;;9.30;4.63;;;5.00;99.90;;;;;;5059612;28;20224;-61
2022/04/12 05:21:35;;;;;;;8.57;5.33;;;5.00;99.90;;;;;;5060957;28;20213;-61
2022/04/12 05:24:00;;;;;;;5.87;4.73;;;5.00;99.90;;;;;;5058052;28;20556;-61
2022/04/12 05:26:26;;;;;;;6.37;4.80;;;5.00;99.90;;;;;;5052768;28;20213;-62
2022/04/12 05:28:51;;;;;;;6.87;5.10;;;5.00;99.90;;;;;;5067998;28;20206;-61
2022/04/12 05:31:17;;;;;;;7.97;5.03;;;5.00;99.90;;;;;;5064672;28;20615;-62
2022/04/12 05:33:42;;;;;;;7.67;4.53;;;5.20;99.90;;;;;;5059148;28;20198;-61
2022/04/12 05:36:08;;;;;;;9.23;5.07;;;5.20;99.90;;;;;;5058938;28;20209;-61
2022/04/12 05:38:34;;;;;;;7.97;4.83;;;5.30;99.90;;;;;;5058531;28;20182;-62
2022/04/12 05:41:00;;;;;;;9.20;4.87;;;5.20;99.90;;;;;;5055496;28;20198;-61
2022/04/12 05:43:25;;;;;;;8.80;5.23;;;5.30;99.90;;;;;;5056270;28;20554;-62
2022/04/12 05:45:51;;;;;;;8.27;4.27;;;5.30;99.90;;;;;;5054346;28;20195;-62
2022/04/12 05:48:16;;;;;;;5.10;4.60;;;5.30;99.90;;;;;;5058526;28;20181;-63
2022/04/12 05:50:42;;;;;;;7.73;4.60;;;5.50;99.90;;;;;;5060194;28;20718;-63
2022/04/12 05:53:07;;;;;;;5.30;4.80;;;5.60;99.90;;;;;;5058847;28;20526;-63
2022/04/12 05:55:34;;;;;;;7.97;4.27;;;5.60;99.90;;;;;;5060038;28;20218;-63
2022/04/12 05:58:03;;;;;;;7.33;4.83;;;5.70;99.90;;;;;;5058029;28;20185;-63
2022/04/12 06:00:30;;;;;;;7.63;4.30;;;5.70;99.90;;;;;;5059132;28;20214;-63
2022/04/12 06:02:56;;;;;;;6.63;4.63;;;5.90;99.90;;;;;;5067388;28;20290;-62
2022/04/12 06:05:23;;;;;;;7.27;4.80;;;6.00;99.80;;;;;;5054325;28;20202;-63
2022/04/12 06:07:50;;;;;;;11.03;4.67;;;6.00;99.60;;;;;;5056546;28;20244;-63
2022/04/12 06:10:16;;;;;;;8.53;4.87;;;6.10;99.00;;;;;;5059986;28;20271;-63
2022/04/12 06:12:43;;;;;;;7.63;4.00;;;6.20;99.50;;;;;;5045485;28;20215;-63
2022/04/12 06:15:09;;;;;;;8.23;4.70;;;6.20;99.00;;;;;;5057832;28;20203;-63
2022/04/12 06:17:36;;;;;;;9.53;4.03;;;6.40;98.70;;;;;;5064645;28;20241;-61
2022/04/12 06:20:06;;;;;;;6.57;4.87;;;6.40;98.40;;;;;;5066957;28;20209;-62
2022/04/12 06:22:33;;;;;;;7.57;4.57;;;6.70;98.00;;;;;;5055349;28;20223;-61
2022/04/12 06:24:59;;;;;;;6.77;5.37;;;6.70;97.90;;;;;;5054026;28;20186;-62
2022/04/12 06:27:31;;;;;;;7.33;4.73;;;6.90;97.40;;;;;;5064832;28;20811;-62
2022/04/12 06:29:57;;;;;;;5.57;4.67;;;6.90;97.00;;;;;;5055819;28;20198;-62
2022/04/12 06:32:23;;;;;;;8.27;5.03;;;6.90;97.50;;;;;;5057646;28;20550;-62
2022/04/12 06:34:48;;;;;;;8.03;4.60;;;7.00;97.40;;;;;;5054464;28;20289;-62
2022/04/12 06:37:14;;;;;;;7.83;4.40;;;7.00;97.40;;;;;;5064376;28;20917;-63
2022/04/12 06:39:39;;;;;;;6.90;4.30;;;7.20;96.60;;;;;;5061492;28;20355;-64
2022/04/12 06:42:05;;;;;;;8.30;4.83;;;7.40;96.30;;;;;;5066669;28;20209;-63
2022/04/12 06:44:32;;;;;;;7.13;4.67;;;7.50;96.00;;;;;;5050999;28;20795;-64
2022/04/12 06:46:58;;;;;;;9.93;5.33;;;7.40;96.20;;;;;;5046778;28;20265;-64
2022/04/12 06:49:23;;;;;;;8.97;4.57;;;7.50;96.10;;;;;;5057045;28;20293;-64
2022/04/12 06:51:49;;;;;;;11.53;6.03;;;7.50;95.40;;;;;;5066558;28;20228;-64
2022/04/12 06:54:14;;;;;;;8.87;4.83;;;7.60;95.30;;;;;;5064912;28;20639;-64
2022/04/12 06:56:40;;;;;;;6.83;4.97;;;7.80;95.40;;;;;;5066426;28;20189;-64
2022/04/12 06:59:06;;;;;;;5.93;5.37;;;7.90;95.10;;;;;;5054259;28;20211;-65
2022/04/12 07:01:31;;;;;;;8.00;5.23;;;8.00;94.70;;;;;;5046316;28;20234;-65
2022/04/12 07:03:57;;;;;;;8.77;4.63;;;8.00;94.60;;;;;;5053667;28;20199;-65
2022/04/12 07:06:22;;;;;;;7.70;6.30;;;8.00;94.80;;;;;;5066181;28;20190;-65
2022/04/12 07:08:48;;;;;;;8.30;4.70;;;8.10;94.50;;;;;;5056704;28;20691;-65
2022/04/12 07:11:13;;;;;;;10.00;4.60;;;8.20;93.80;;;;;;5046447;28;20187;-63
2022/04/12 07:13:39;;;;;;;10.07;5.57;;;8.40;93.40;;;;;;5050783;28;20564;-63
2022/04/12 07:16:04;;;;;;;6.97;5.13;;;8.50;93.30;;;;;;5066450;28;20183;-66
2022/04/12 07:18:30;;;;;;;9.53;6.07;;;8.60;93.70;;;;;;5058938;28;20242;-73
2022/04/12 07:20:55;;;;;;;7.63;5.53;;;8.70;92.70;;;;;;5046600;28;20182;-64
2022/04/12 07:23:21;;;;;;;6.50;4.63;;;8.70;93.00;;;;;;5047772;28;20665;-64
2022/04/12 07:25:46;;;;;;;6.87;4.70;;;8.80;91.90;;;;;;5066096;28;21002;-64
2022/04/12 07:28:11;;;;;;;8.80;5.10;;;9.00;91.80;;;;;;5061352;28;20195;-62
2022/04/12 07:30:38;;;;;;;7.73;5.47;;;9.00;91.90;;;;;;5065714;28;20189;-65
2022/04/12 07:33:03;;;;;;;8.67;5.67;;;9.00;91.50;;;;;;5061996;28;20181;-67
2022/04/12 07:35:30;;;;;;;9.23;4.87;;;9.10;91.70;;;;;;5064854;28;20633;-63
2022/04/12 07:37:56;;;;;;;5.40;4.50;;;9.20;91.10;;;;;;5063544;28;20186;-61
2022/04/12 07:40:22;;;;;;;6.37;4.80;;;9.30;90.40;;;;;;5053806;28;20195;-62
2022/04/12 07:42:48;;;;;;;8.23;5.07;;;9.40;90.00;;;;;;5056821;28;20214;-62
2022/04/12 07:45:13;;;;;;;6.13;4.13;;;9.40;90.20;;;;;;5058509;28;20263;-63
2022/04/12 07:47:39;;;;;;;7.13;5.27;;;9.50;89.50;;;;;;5054496;28;20183;-62
2022/04/12 07:50:06;;;;;;;8.83;5.23;;;9.60;88.90;;;;;;5050895;28;20207;-64
2022/04/12 07:52:31;;;;;;;7.30;5.07;;;9.80;88.70;;;;;;5048181;28;20597;-63
2022/04/12 07:54:57;;;;;;;7.70;4.43;;;9.90;86.40;;;;;;5063693;28;20206;-63
2022/04/12 07:57:22;;;;;;;9.90;5.00;;;10.00;86.20;;;;;;5058365;28;20240;-63
2022/04/12 07:59:48;;;;;;;5.67;4.63;;;10.00;85.20;;;;;;5047769;28;20209;-64
2022/04/12 08:02:13;;;;;;;10.10;5.60;;;10.10;85.20;;;;;;5057118;28;20644;-63
2022/04/12 08:04:41;;;;;;;6.43;4.87;;;10.20;84.80;;;;;;5050402;28;20268;-65
2022/04/12 08:07:06;;;;;;;6.07;4.17;;;10.30;83.40;;;;;;5045514;28;20257;-65
2022/04/12 08:09:32;;;;;;;7.70;4.73;;;10.40;83.00;;;;;;5043692;28;20238;-63
2022/04/12 08:11:57;;;;;;;6.37;4.60;;;10.50;82.90;;;;;;5048405;28;20774;-66
2022/04/12 08:14:23;;;;;;;4.40;4.07;;;10.60;82.00;;;;;;5063352;28;20198;-66
2022/04/12 08:16:48;;;;;;;5.30;4.37;;;10.60;80.80;;;;;;5065508;28;20427;-66
2022/04/12 08:19:14;;;;;;;5.43;4.30;;;10.70;81.10;;;;;;5058581;28;20200;-66
2022/04/12 08:21:40;;;;;;;5.17;4.63;;;10.80;80.30;;;;;;5054118;28;20225;-66
2022/04/12 08:24:06;;;;;;;5.33;4.10;;;11.00;77.70;;;;;;5048454;28;20209;-65
2022/04/12 08:26:32;;;;;;;6.43;5.07;;;11.20;77.10;;;;;;5052354;28;20563;-67
2022/04/12 08:28:57;;;;;;;6.97;5.07;;;11.20;77.20;;;;;;5063501;28;20203;-66
2022/04/12 08:31:23;;;;;;;6.20;4.73;;;11.40;77.10;;;;;;5058227;28;20197;-66
2022/04/12 08:33:49;;;;;;;7.13;4.97;;;11.50;74.90;;;;;;5056652;28;20214;-67
2022/04/12 08:36:16;;;;;;;7.17;5.13;;;11.60;73.80;;;;;;5059142;28;20628;-67
2022/04/12 08:38:43;;;;;;;5.73;5.00;;;11.60;73.90;;;;;;5053794;28;20702;-67
2022/04/12 08:41:09;;;;;;;4.30;3.97;;;11.90;72.20;;;;;;5068560;28;20253;-68
2022/04/12 08:43:36;;;;;;;6.10;4.97;;;12.00;72.20;;;;;;5053078;28;20207;-66
2022/04/12 08:46:02;;;;;;;7.57;4.30;;;12.20;71.30;;;;;;5069147;28;20199;-66
2022/04/12 08:48:28;;;;;;;4.47;4.07;;;12.20;70.80;;;;;;5060533;28;20662;-67
2022/04/12 08:50:54;;;;;;;6.73;5.20;;;12.30;70.50;;;;;;5069052;28;20577;-66
2022/04/12 08:53:20;;;;;;;5.37;4.23;;;12.30;66.80;;;;;;5059790;28;20233;-67
2022/04/12 08:55:45;;;;;;;7.20;5.30;;;12.30;67.30;;;;;;5057390;28;20193;-67
2022/04/12 08:58:11;;;;;;;5.97;4.70;;;12.60;64.40;;;;;;5055645;28;20648;-69
2022/04/12 09:00:37;;;;;;;6.00;4.43;;;12.40;65.30;;;;;;5054768;28;20186;-67
2022/04/12 09:03:03;;;;;;;6.80;4.87;;;12.40;65.60;;;;;;5056851;28;20196;-66
2022/04/12 09:05:32;;;;;;;6.17;4.50;;;12.40;64.60;;;;;;5056573;28;20194;-68
2022/04/12 09:07:58;;;;;;;7.80;4.20;;;12.40;64.20;;;;;;5051821;28;20193;-67
2022/04/12 09:10:35;;;;;;;4.90;4.20;;;12.50;64.70;;;;;;5055397;28;20197;-68
2022/04/12 09:13:14;;;;;;;7.90;4.60;;;12.50;63.90;;;;;;5055555;28;20192;-69
2022/04/12 09:15:44;;;;;;;6.03;4.33;;;12.60;62.80;;;;;;5063552;28;20955;-68
2022/04/12 09:18:11;;;;;;;5.03;4.23;;;12.60;63.10;;;;;;5066326;28;20244;-67
2022/04/12 09:20:36;;;;;;;5.83;4.83;;;12.90;62.80;;;;;;5068462;28;20189;-66
2022/04/12 09:23:02;;;;;;;6.67;4.57;;;13.00;60.60;;;;;;5052114;28;20214;-66
2022/04/12 09:25:27;;;;;;;6.80;4.10;;;12.90;60.80;;;;;;5059270;28;20201;-67
2022/04/12 09:27:55;;;;;;;6.60;4.33;;;12.90;60.60;;;;;;5064532;28;20214;-67
2022/04/12 09:30:21;;;;;;;5.57;4.67;;;12.90;61.50;;;;;;5064289;28;20190;-69
2022/04/12 09:32:48;;;;;;;9.63;4.93;;;13.00;60.90;;;;;;5065362;28;20253;-70
2022/04/12 09:35:15;;;;;;;5.07;4.40;;;12.90;60.70;;;;;;5063502;28;20236;-66
2022/04/12 09:37:42;;;;;;;6.80;4.57;;;13.10;61.70;;;;;;5064018;28;20251;-66
2022/04/12 09:40:15;;;;;;;5.43;4.87;;;13.10;61.20;;;;;;5060034;28;20208;-70
2022/04/12 09:42:45;;;;;;;7.23;4.97;;;13.30;62.40;;;;;;5064770;28;20668;-74
2022/04/12 09:45:17;;;;;;;8.33;5.20;;;13.50;60.80;;;;;;5061079;28;20198;-75
2022/04/12 09:47:45;;;;;;;6.47;5.40;;;13.50;60.70;;;;;;5062362;28;20185;-66
2022/04/12 09:50:11;;;;;;;4.90;4.40;;;13.30;60.70;;;;;;5066085;28;20202;-68
2022/04/12 09:52:37;;;;;;;5.47;4.97;;;13.30;60.00;;;;;;5062754;28;20234;-68
2022/04/12 09:55:04;;;;;;;4.13;3.77;;;13.40;60.40;;;;;;5055617;28;20213;-67
2022/04/12 09:57:31;;;;;;;9.73;5.30;;;13.50;58.90;;;;;;5064410;28;20201;-68
2022/04/12 09:59:58;;;;;;;6.47;4.30;;;13.40;58.00;;;;;;5054256;28;20205;-68
2022/04/12 10:02:26;;;;;;;6.33;5.43;;;13.60;57.90;;;;;;5061421;28;20238;-67
2022/04/12 10:04:53;;;;;;;6.63;5.30;;;13.60;58.50;;;;;;5046264;28;20202;-66
2022/04/12 10:07:21;;;;;;;6.17;4.50;;;13.80;58.60;;;;;;5066992;28;20536;-66
2022/04/12 10:09:49;;;;;;;7.17;5.33;;;13.90;58.50;;;;;;5065312;28;20205;-67
2022/04/12 10:12:15;;;;;;;6.13;4.87;;;14.00;58.30;;;;;;5063053;28;20186;-69
2022/04/12 10:14:42;;;;;;;5.33;4.83;;;14.00;58.50;;;;;;5063784;28;20613;-67
2022/04/12 10:17:08;;;;;;;8.37;4.80;;;14.10;58.30;;;;;;5064507;28;20617;-67
2022/04/12 10:19:35;;;;;;;5.30;4.73;;;14.10;56.10;;;;;;5062428;28;20289;-68
2022/04/12 10:22:02;;;;;;;8.30;4.30;;;13.90;56.90;;;;;;5063736;28;20206;-67
2022/04/12 10:24:29;;;;;;;9.47;4.53;;;14.10;56.60;;;;;;5053913;28;20203;-67
2022/04/12 10:26:56;;;;;;;5.40;4.87;;;14.10;56.50;;;;;;5065641;28;20226;-66
2022/04/12 10:29:22;;;;;;;5.63;4.73;;;14.30;57.10;;;;;;5053749;28;20198;-67
2022/04/12 10:31:59;;;;;;;6.07;4.57;;;14.30;55.50;;;;;;5056215;28;20277;-66
2022/04/12 10:34:25;;;;;;;4.83;4.40;;;14.60;55.20;;;;;;5057682;28;20204;-72
2022/04/12 10:37:07;;;;;;;5.80;4.80;;;14.60;55.20;;;;;;5064264;28;20923;-75
2022/04/12 10:39:36;;;;;;;4.53;3.80;;;14.50;54.60;;;;;;5060075;28;20637;-69
2022/04/12 10:42:09;;;;;;;7.37;5.07;;;14.50;55.20;;;;;;5055413;28;20207;-70
2022/04/12 10:44:43;;;;;;;7.10;4.93;;;14.50;55.60;;;;;;5064376;28;20198;-70
2022/04/12 10:47:42;;;;;;;7.23;5.47;;;14.60;55.50;;;;;;5060514;28;20197;-68
2022/04/12 10:50:10;;;;;;;7.73;5.17;;;14.80;53.50;;;;;;5052165;28;20218;-69
2022/04/12 10:52:44;;;;;;;5.27;4.23;;;15.00;55.00;;;;;;5048820;28;20226;-69
2022/04/12 10:55:15;;;;;;;5.80;4.30;;;15.10;55.50;;;;;;5066466;28;20182;-69
2022/04/12 10:57:41;;;;;;;5.57;4.27;;;15.40;55.00;;;;;;5053413;28;20214;-68
2022/04/12 11:00:15;;;;;;;6.10;4.40;;;15.80;54.50;;;;;;5055649;28;20190;-69
2022/04/12 11:02:53;;;;;;;5.80;4.87;;;15.90;54.20;;;;;;5058433;28;20209;-69
2022/04/12 11:05:42;;;;;;;7.73;4.93;;;16.10;53.80;;;;;;5065856;28;20182;-68
2022/04/12 11:08:13;;;;;;;6.73;4.53;;;16.20;53.10;;;;;;5043365;28;20211;-69
2022/04/12 11:10:40;;;;;;;4.13;3.73;;;16.10;51.70;;;;;;5057958;28;20187;-71
2022/04/12 11:13:10;;;;;;;5.20;4.70;;;16.00;50.70;;;;;;5053636;28;20211;-72
2022/04/12 11:15:40;;;;;;;6.93;5.77;;;16.10;52.20;;;;;;5065296;28;20194;-72
2022/04/12 11:18:12;;;;;;;5.83;5.20;;;16.10;52.30;;;;;;5063367;28;20194;-71
2022/04/12 11:20:43;;;;;;;6.73;4.90;;;16.20;52.20;;;;;;5065430;28;20217;-69
2022/04/12 11:23:11;;;;;;;6.00;5.00;;;16.20;49.90;;;;;;5054493;28;20213;-72
2022/04/12 11:25:51;;;;;;;5.70;4.97;;;16.00;51.90;;;;;;5059083;28;20732;-71
2022/04/12 11:28:22;;;;;;;5.23;4.73;;;16.20;52.40;;;;;;5061570;28;20205;-70
2022/04/12 11:30:58;;;;;;;5.17;4.20;;;16.60;50.40;;;;;;5061986;28;20194;-70
2022/04/12 11:33:31;;;;;;;5.20;4.70;;;16.30;48.80;;;;;;5059729;28;20202;-73
2022/04/12 11:35:57;;;;;;;4.93;4.43;;;16.30;50.40;;;;;;5052911;28;20197;-74
2022/04/12 11:38:24;;;;;;;5.60;4.43;;;16.70;48.20;;;;;;5063636;28;20198;-75
2022/04/12 11:40:50;;;;;;;6.30;5.70;;;16.40;47.90;;;;;;5064983;28;20190;-72
2022/04/12 11:43:23;;;;;;;6.63;5.57;;;16.30;50.10;;;;;;5055498;28;20218;-73
2022/04/12 11:45:57;;;;;;;6.87;5.07;;;16.50;50.90;;;;;;5065400;28;20217;-74
2022/04/12 11:48:27;;;;;;;5.40;4.90;;;16.80;51.00;;;;;;5043680;28;20191;-72
2022/04/12 11:50:57;;;;;;;6.73;5.37;;;17.50;50.90;;;;;;5063246;28;20178;-73
2022/04/12 11:53:25;;;;;;;8.93;5.37;;;17.70;49.30;;;;;;5059131;28;20718;-71
2022/04/12 11:55:50;;;;;;;6.80;5.07;;;17.60;49.40;;;;;;5065216;28;20176;-72
2022/04/12 11:58:20;;;;;;;6.80;5.40;;;17.70;49.10;;;;;;5060508;28;20683;-73
2022/04/12 12:00:45;;;;;;;6.00;5.40;;;18.00;49.10;;;;;;5064746;28;20654;-75
2022/04/12 12:03:16;;;;;;;5.57;4.77;;;17.90;48.30;;;;;;5057000;28;20730;-74
2022/04/12 12:05:42;;;;;;;6.90;4.90;;;17.80;47.00;;;;;;5055196;28;20200;-64
2022/04/12 12:08:10;;;;;;;7.80;5.10;;;17.90;48.80;;;;;;5063284;28;20259;-69
2022/04/12 12:10:35;;;;;;;7.67;4.77;;;17.80;48.60;;;;;;5055227;28;20702;-68
2022/04/12 12:13:05;;;;;;;6.63;5.40;;;18.10;46.10;;;;;;5055751;28;20374;-70
2022/04/12 12:15:31;;;;;;;6.63;4.53;;;18.00;44.60;;;;;;5065701;28;20211;-69
2022/04/12 12:17:58;;;;;;;4.77;4.37;;;18.10;45.10;;;;;;5068065;28;20177;-69
2022/04/12 12:20:26;;;;;;;4.77;4.00;;;18.40;44.30;;;;;;5063375;28;20204;-71
2022/04/12 12:23:02;;;;;;;7.07;4.10;;;18.80;43.00;;;;;;5065617;28;20201;-70
2022/04/12 12:25:46;;;;;;;4.93;4.43;;;19.20;44.50;;;;;;5059846;28;20684;-68
2022/04/12 12:28:13;;;;;;;6.70;4.50;;;19.20;43.10;;;;;;5053589;28;20184;-67
2022/04/12 12:30:39;;;;;;;4.13;3.80;;;18.90;42.20;;;;;;5053828;28;20238;-67
2022/04/12 12:33:05;;;;;;;5.83;4.97;;;19.30;41.90;;;;;;5056167;28;20546;-67
2022/04/12 12:35:30;;;;;;;6.20;4.30;;;20.10;45.10;;;;;;5066296;28;20732;-68
2022/04/12 12:38:12;;;;;;;5.67;4.97;;;20.60;43.90;;;;;;5068567;28;20320;-68
2022/04/12 12:40:38;;;;;;;5.00;4.30;;;20.30;41.30;;;;;;5062382;28;20207;-68
2022/04/12 12:43:06;;;;;;;6.50;5.27;;;20.30;42.20;;;;;;5067812;28;20210;-68
2022/04/12 12:45:34;;;;;;;5.13;4.20;;;20.80;44.10;;;;;;5053753;28;20896;-66
2022/04/12 12:47:59;;;;;;;5.33;4.50;;;20.60;41.40;;;;;;5067236;28;20187;-68
2022/04/12 12:50:27;;;;;;;5.50;3.95;;;21.20;42.60;;;;;;5061399;28;20737;-68
2022/04/12 12:53:01;;;;;;;5.82;5.10;;;21.60;41.60;;;;;;5048845;28;20226;-68
2022/04/12 12:55:29;;;;;;;4.30;3.92;;;22.10;41.20;;;;;;5066153;28;20203;-67